sensor_id;sensor_type;location;lat;lon;timestamp;P1;durP1;ratioP1;P2;durP2;ratioP2
50709;SDS011;37033;49.994;21.992;2023-08-12T00:00:23;12.40;;;5.40;;
50709;SDS011;37033;49.994;21.992;2023-08-12T00:03:14;14.60;;;5.70;;
50709;SDS011;37033;49.994;21.992;2023-08-12T00:05:45;15.80;;;6.30;;
50709;SDS011;37033;49.994;21.992;2023-08-12T00:08:15;9.30;;;5.80;;
50709;SDS011;37033;49.994;21.992;2023-08-12T00:10:46;7.20;;;5.40;;
50709;SDS011;37033;49.994;21.992;2023-08-12T00:13:17;5.70;;;5.10;;
50709;SDS011;37033;49.994;21.992;2023-08-12T00:15:48;5.70;;;5.10;;
50709;SDS011;37033;49.994;21.992;2023-08-12T00:18:19;7.80;;;5.40;;
50709;SDS011;37033;49.994;21.992;2023-08-12T00:20:50;6.60;;;5.90;;
50709;SDS011;37033;49.994;21.992;2023-08-12T00:23:21;9.90;;;5.70;;
50709;SDS011;37033;49.994;21.992;2023-08-12T00:25:52;8.20;;;5.40;;
50709;SDS011;37033;49.994;21.992;2023-08-12T00:28:26;8.70;;;5.40;;
50709;SDS011;37033;49.994;21.992;2023-08-12T00:30:57;6.70;;;5.00;;
50709;SDS011;37033;49.994;21.992;2023-08-12T00:33:28;7.80;;;5.50;;
50709;SDS011;37033;49.994;21.992;2023-08-12T00:35:59;11.90;;;5.50;;
50709;SDS011;37033;49.994;21.992;2023-08-12T00:38:30;6.50;;;5.40;;
50709;SDS011;37033;49.994;21.992;2023-08-12T00:41:01;5.80;;;5.00;;
50709;SDS011;37033;49.994;21.992;2023-08-12T00:43:32;5.60;;;5.00;;
50709;SDS011;37033;49.994;21.992;2023-08-12T00:46:03;8.60;;;5.20;;
50709;SDS011;37033;49.994;21.992;2023-08-12T00:48:34;8.20;;;4.70;;
50709;SDS011;37033;49.994;21.992;2023-08-12T00:51:05;6.50;;;5.10;;
50709;SDS011;37033;49.994;21.992;2023-08-12T00:53:36;6.40;;;4.60;;
50709;SDS011;37033;49.994;21.992;2023-08-12T00:56:08;6.10;;;5.10;;
50709;SDS011;37033;49.994;21.992;2023-08-12T00:58:38;7.30;;;5.10;;
50709;SDS011;37033;49.994;21.992;2023-08-12T01:01:10;5.80;;;5.10;;
50709;SDS011;37033;49.994;21.992;2023-08-12T01:03:41;7.20;;;5.50;;
50709;SDS011;37033;49.994;21.992;2023-08-12T01:06:12;10.50;;;5.30;;
50709;SDS011;37033;49.994;21.992;2023-08-12T01:08:43;6.20;;;5.00;;
50709;SDS011;37033;49.994;21.992;2023-08-12T01:11:14;5.70;;;4.70;;
50709;SDS011;37033;49.994;21.992;2023-08-12T01:13:52;9.60;;;5.30;;
50709;SDS011;37033;49.994;21.992;2023-08-12T01:16:29;5.50;;;5.00;;
50709;SDS011;37033;49.994;21.992;2023-08-12T01:21:33;5.60;;;4.70;;
50709;SDS011;37033;49.994;21.992;2023-08-12T01:24:09;6.50;;;4.80;;
50709;SDS011;37033;49.994;21.992;2023-08-12T01:26:40;5.80;;;5.10;;
50709;SDS011;37033;49.994;21.992;2023-08-12T01:29:11;6.70;;;4.80;;
50709;SDS011;37033;49.994;21.992;2023-08-12T01:31:43;8.10;;;5.00;;
50709;SDS011;37033;49.994;21.992;2023-08-12T01:34:20;5.70;;;5.20;;
50709;SDS011;37033;49.994;21.992;2023-08-12T01:36:58;5.50;;;4.60;;
50709;SDS011;37033;49.994;21.992;2023-08-12T01:39:33;5.90;;;4.50;;
50709;SDS011;37033;49.994;21.992;2023-08-12T01:42:05;6.10;;;5.30;;
50709;SDS011;37033;49.994;21.992;2023-08-12T01:44:36;7.40;;;4.80;;
50709;SDS011;37033;49.994;21.992;2023-08-12T01:47:07;6.40;;;5.50;;
50709;SDS011;37033;49.994;21.992;2023-08-12T01:49:38;8.70;;;4.70;;
50709;SDS011;37033;49.994;21.992;2023-08-12T01:52:09;5.90;;;5.20;;
50709;SDS011;37033;49.994;21.992;2023-08-12T01:54:39;6.10;;;5.10;;
50709;SDS011;37033;49.994;21.992;2023-08-12T01:57:10;16.00;;;5.40;;
50709;SDS011;37033;49.994;21.992;2023-08-12T01:59:41;7.60;;;5.60;;
50709;SDS011;37033;49.994;21.992;2023-08-12T02:02:12;5.60;;;4.90;;
50709;SDS011;37033;49.994;21.992;2023-08-12T02:04:43;6.30;;;4.70;;
50709;SDS011;37033;49.994;21.992;2023-08-12T02:07:14;7.20;;;5.10;;
50709;SDS011;37033;49.994;21.992;2023-08-12T02:09:44;7.40;;;5.10;;
50709;SDS011;37033;49.994;21.992;2023-08-12T02:12:15;6.00;;;5.10;;
50709;SDS011;37033;49.994;21.992;2023-08-12T02:14:46;8.70;;;5.00;;
50709;SDS011;37033;49.994;21.992;2023-08-12T02:17:17;5.80;;;5.20;;
50709;SDS011;37033;49.994;21.992;2023-08-12T02:19:47;6.50;;;5.20;;
50709;SDS011;37033;49.994;21.992;2023-08-12T02:22:18;7.90;;;5.50;;
50709;SDS011;37033;49.994;21.992;2023-08-12T02:24:49;11.70;;;5.60;;
50709;SDS011;37033;49.994;21.992;2023-08-12T02:27:19;5.60;;;5.00;;
50709;SDS011;37033;49.994;21.992;2023-08-12T02:29:50;7.70;;;5.80;;
50709;SDS011;37033;49.994;21.992;2023-08-12T02:32:21;8.00;;;5.60;;
50709;SDS011;37033;49.994;21.992;2023-08-12T02:34:52;4.90;;;4.40;;
50709;SDS011;37033;49.994;21.992;2023-08-12T02:37:23;5.90;;;5.30;;
50709;SDS011;37033;49.994;21.992;2023-08-12T02:39:53;5.70;;;4.90;;
50709;SDS011;37033;49.994;21.992;2023-08-12T02:42:24;8.90;;;5.10;;
50709;SDS011;37033;49.994;21.992;2023-08-12T02:44:55;6.50;;;4.90;;
50709;SDS011;37033;49.994;21.992;2023-08-12T02:47:27;5.90;;;4.80;;
50709;SDS011;37033;49.994;21.992;2023-08-12T02:49:58;6.60;;;5.30;;
50709;SDS011;37033;49.994;21.992;2023-08-12T02:52:30;5.90;;;4.80;;
50709;SDS011;37033;49.994;21.992;2023-08-12T02:55:00;4.70;;;4.20;;
50709;SDS011;37033;49.994;21.992;2023-08-12T02:57:31;6.10;;;4.50;;
50709;SDS011;37033;49.994;21.992;2023-08-12T03:00:02;6.50;;;5.00;;
50709;SDS011;37033;49.994;21.992;2023-08-12T03:02:35;6.20;;;4.80;;
50709;SDS011;37033;49.994;21.992;2023-08-12T03:05:07;9.00;;;4.90;;
50709;SDS011;37033;49.994;21.992;2023-08-12T03:07:38;5.00;;;4.40;;
50709;SDS011;37033;49.994;21.992;2023-08-12T03:10:09;6.10;;;5.00;;
50709;SDS011;37033;49.994;21.992;2023-08-12T03:12:40;5.30;;;4.80;;
50709;SDS011;37033;49.994;21.992;2023-08-12T03:15:11;6.90;;;4.90;;
50709;SDS011;37033;49.994;21.992;2023-08-12T03:17:42;7.20;;;5.50;;
50709;SDS011;37033;49.994;21.992;2023-08-12T03:20:13;8.50;;;5.20;;
50709;SDS011;37033;49.994;21.992;2023-08-12T03:22:43;5.10;;;4.70;;
50709;SDS011;37033;49.994;21.992;2023-08-12T03:25:14;6.60;;;5.30;;
50709;SDS011;37033;49.994;21.992;2023-08-12T03:27:45;6.60;;;5.20;;
50709;SDS011;37033;49.994;21.992;2023-08-12T03:30:16;7.30;;;5.20;;
50709;SDS011;37033;49.994;21.992;2023-08-12T03:32:47;6.00;;;5.00;;
50709;SDS011;37033;49.994;21.992;2023-08-12T03:35:17;5.90;;;4.70;;
50709;SDS011;37033;49.994;21.992;2023-08-12T03:37:48;7.70;;;4.80;;
50709;SDS011;37033;49.994;21.992;2023-08-12T03:40:20;5.20;;;4.70;;
50709;SDS011;37033;49.994;21.992;2023-08-12T03:42:50;7.90;;;5.10;;
50709;SDS011;37033;49.994;21.992;2023-08-12T03:45:21;4.80;;;4.30;;
50709;SDS011;37033;49.994;21.992;2023-08-12T03:47:52;7.20;;;5.40;;
50709;SDS011;37033;49.994;21.992;2023-08-12T03:50:22;5.30;;;4.70;;
50709;SDS011;37033;49.994;21.992;2023-08-12T03:52:53;6.40;;;5.10;;
50709;SDS011;37033;49.994;21.992;2023-08-12T03:55:24;7.70;;;4.80;;
50709;SDS011;37033;49.994;21.992;2023-08-12T03:57:54;5.90;;;4.90;;
50709;SDS011;37033;49.994;21.992;2023-08-12T04:00:25;6.30;;;5.20;;
50709;SDS011;37033;49.994;21.992;2023-08-12T04:02:56;5.60;;;5.10;;
50709;SDS011;37033;49.994;21.992;2023-08-12T04:05:28;10.50;;;4.90;;
50709;SDS011;37033;49.994;21.992;2023-08-12T04:07:58;5.40;;;4.70;;
50709;SDS011;37033;49.994;21.992;2023-08-12T04:10:29;5.30;;;4.80;;
50709;SDS011;37033;49.994;21.992;2023-08-12T04:13:03;7.00;;;5.30;;
50709;SDS011;37033;49.994;21.992;2023-08-12T04:15:34;5.40;;;4.70;;
50709;SDS011;37033;49.994;21.992;2023-08-12T04:18:07;7.90;;;5.10;;
50709;SDS011;37033;49.994;21.992;2023-08-12T04:20:38;6.20;;;5.30;;
50709;SDS011;37033;49.994;21.992;2023-08-12T04:23:09;5.10;;;4.60;;
50709;SDS011;37033;49.994;21.992;2023-08-12T04:25:40;7.50;;;5.90;;
50709;SDS011;37033;49.994;21.992;2023-08-12T04:28:13;6.60;;;5.40;;
50709;SDS011;37033;49.994;21.992;2023-08-12T04:30:45;5.80;;;5.10;;
50709;SDS011;37033;49.994;21.992;2023-08-12T04:33:18;6.40;;;5.30;;
50709;SDS011;37033;49.994;21.992;2023-08-12T04:35:49;8.90;;;5.20;;
50709;SDS011;37033;49.994;21.992;2023-08-12T04:38:21;7.00;;;5.50;;
50709;SDS011;37033;49.994;21.992;2023-08-12T04:40:52;8.60;;;5.90;;
50709;SDS011;37033;49.994;21.992;2023-08-12T04:43:23;6.50;;;5.10;;
50709;SDS011;37033;49.994;21.992;2023-08-12T04:45:54;6.00;;;5.40;;
50709;SDS011;37033;49.994;21.992;2023-08-12T04:48:25;7.20;;;5.80;;
50709;SDS011;37033;49.994;21.992;2023-08-12T04:50:56;9.30;;;5.50;;
50709;SDS011;37033;49.994;21.992;2023-08-12T04:53:29;11.60;;;5.60;;
50709;SDS011;37033;49.994;21.992;2023-08-12T04:56:00;6.50;;;5.80;;
50709;SDS011;37033;49.994;21.992;2023-08-12T04:58:31;6.60;;;5.30;;
50709;SDS011;37033;49.994;21.992;2023-08-12T05:01:02;6.40;;;5.00;;
50709;SDS011;37033;49.994;21.992;2023-08-12T05:03:33;5.50;;;4.90;;
50709;SDS011;37033;49.994;21.992;2023-08-12T05:06:04;6.90;;;4.80;;
50709;SDS011;37033;49.994;21.992;2023-08-12T05:08:35;7.70;;;4.80;;
50709;SDS011;37033;49.994;21.992;2023-08-12T05:11:06;4.40;;;4.00;;
50709;SDS011;37033;49.994;21.992;2023-08-12T05:13:37;5.20;;;4.30;;
50709;SDS011;37033;49.994;21.992;2023-08-12T05:16:08;4.90;;;4.50;;
50709;SDS011;37033;49.994;21.992;2023-08-12T05:18:39;8.70;;;4.80;;
50709;SDS011;37033;49.994;21.992;2023-08-12T05:21:09;5.70;;;4.30;;
50709;SDS011;37033;49.994;21.992;2023-08-12T05:23:40;4.70;;;4.30;;
50709;SDS011;37033;49.994;21.992;2023-08-12T05:26:12;5.20;;;4.30;;
50709;SDS011;37033;49.994;21.992;2023-08-12T05:28:43;6.10;;;5.50;;
50709;SDS011;37033;49.994;21.992;2023-08-12T05:31:14;10.70;;;7.30;;
50709;SDS011;37033;49.994;21.992;2023-08-12T05:33:45;8.90;;;5.00;;
50709;SDS011;37033;49.994;21.992;2023-08-12T05:36:19;6.00;;;5.10;;
50709;SDS011;37033;49.994;21.992;2023-08-12T05:38:50;5.40;;;4.90;;
50709;SDS011;37033;49.994;21.992;2023-08-12T05:41:21;4.50;;;4.10;;
50709;SDS011;37033;49.994;21.992;2023-08-12T05:43:52;5.60;;;4.30;;
50709;SDS011;37033;49.994;21.992;2023-08-12T05:46:23;5.40;;;4.70;;
50709;SDS011;37033;49.994;21.992;2023-08-12T05:48:54;4.80;;;4.30;;
50709;SDS011;37033;49.994;21.992;2023-08-12T05:51:25;10.10;;;4.30;;
50709;SDS011;37033;49.994;21.992;2023-08-12T05:53:56;6.30;;;5.10;;
50709;SDS011;37033;49.994;21.992;2023-08-12T05:56:27;5.30;;;4.80;;
50709;SDS011;37033;49.994;21.992;2023-08-12T05:58:59;6.40;;;4.80;;
50709;SDS011;37033;49.994;21.992;2023-08-12T06:01:29;6.20;;;4.40;;
50709;SDS011;37033;49.994;21.992;2023-08-12T06:04:00;8.80;;;4.30;;
50709;SDS011;37033;49.994;21.992;2023-08-12T06:06:32;6.40;;;3.90;;
50709;SDS011;37033;49.994;21.992;2023-08-12T06:09:03;4.20;;;3.80;;
50709;SDS011;37033;49.994;21.992;2023-08-12T06:11:33;5.60;;;4.50;;
50709;SDS011;37033;49.994;21.992;2023-08-12T06:14:04;4.50;;;3.40;;
50709;SDS011;37033;49.994;21.992;2023-08-12T06:16:35;4.90;;;4.40;;
50709;SDS011;37033;49.994;21.992;2023-08-12T06:19:06;4.60;;;3.50;;
50709;SDS011;37033;49.994;21.992;2023-08-12T06:21:37;6.50;;;4.10;;
50709;SDS011;37033;49.994;21.992;2023-08-12T06:24:08;4.90;;;3.90;;
50709;SDS011;37033;49.994;21.992;2023-08-12T06:26:39;7.40;;;5.70;;
50709;SDS011;37033;49.994;21.992;2023-08-12T06:29:09;5.70;;;4.40;;
50709;SDS011;37033;49.994;21.992;2023-08-12T06:31:40;8.40;;;3.70;;
50709;SDS011;37033;49.994;21.992;2023-08-12T06:34:11;7.40;;;3.40;;
50709;SDS011;37033;49.994;21.992;2023-08-12T06:36:42;6.00;;;3.80;;
50709;SDS011;37033;49.994;21.992;2023-08-12T06:39:13;4.30;;;3.50;;
50709;SDS011;37033;49.994;21.992;2023-08-12T06:41:44;5.10;;;3.40;;
50709;SDS011;37033;49.994;21.992;2023-08-12T06:46:47;5.60;;;3.70;;
50709;SDS011;37033;49.994;21.992;2023-08-12T06:49:18;6.40;;;3.70;;
50709;SDS011;37033;49.994;21.992;2023-08-12T06:51:49;6.10;;;3.70;;
50709;SDS011;37033;49.994;21.992;2023-08-12T06:54:20;5.20;;;3.20;;
50709;SDS011;37033;49.994;21.992;2023-08-12T06:56:52;5.70;;;4.00;;
50709;SDS011;37033;49.994;21.992;2023-08-12T06:59:23;4.50;;;3.50;;
50709;SDS011;37033;49.994;21.992;2023-08-12T07:01:54;4.90;;;4.10;;
50709;SDS011;37033;49.994;21.992;2023-08-12T07:04:25;3.80;;;3.30;;
50709;SDS011;37033;49.994;21.992;2023-08-12T07:06:56;5.90;;;4.90;;
50709;SDS011;37033;49.994;21.992;2023-08-12T07:09:27;10.50;;;4.70;;
50709;SDS011;37033;49.994;21.992;2023-08-12T07:11:58;7.70;;;4.00;;
50709;SDS011;37033;49.994;21.992;2023-08-12T07:14:30;5.80;;;4.50;;
50709;SDS011;37033;49.994;21.992;2023-08-12T07:17:01;5.80;;;3.70;;
50709;SDS011;37033;49.994;21.992;2023-08-12T07:19:32;7.40;;;2.50;;
50709;SDS011;37033;49.994;21.992;2023-08-12T07:22:03;3.10;;;2.60;;
50709;SDS011;37033;49.994;21.992;2023-08-12T07:24:34;4.10;;;2.70;;
50709;SDS011;37033;49.994;21.992;2023-08-12T07:27:05;3.70;;;2.70;;
50709;SDS011;37033;49.994;21.992;2023-08-12T07:29:36;4.60;;;3.30;;
50709;SDS011;37033;49.994;21.992;2023-08-12T07:32:07;3.10;;;2.70;;
50709;SDS011;37033;49.994;21.992;2023-08-12T07:34:38;2.90;;;2.70;;
50709;SDS011;37033;49.994;21.992;2023-08-12T07:37:08;4.00;;;2.70;;
50709;SDS011;37033;49.994;21.992;2023-08-12T07:39:40;4.90;;;2.60;;
50709;SDS011;37033;49.994;21.992;2023-08-12T07:42:10;3.00;;;2.10;;
50709;SDS011;37033;49.994;21.992;2023-08-12T07:44:41;4.20;;;2.20;;
50709;SDS011;37033;49.994;21.992;2023-08-12T07:47:12;3.20;;;2.60;;
50709;SDS011;37033;49.994;21.992;2023-08-12T07:49:44;2.80;;;2.40;;
50709;SDS011;37033;49.994;21.992;2023-08-12T07:52:15;5.00;;;2.20;;
50709;SDS011;37033;49.994;21.992;2023-08-12T07:54:46;3.50;;;2.50;;
50709;SDS011;37033;49.994;21.992;2023-08-12T07:57:17;2.70;;;2.40;;
50709;SDS011;37033;49.994;21.992;2023-08-12T07:59:52;3.30;;;2.30;;
50709;SDS011;37033;49.994;21.992;2023-08-12T08:02:23;2.80;;;2.10;;
50709;SDS011;37033;49.994;21.992;2023-08-12T08:04:54;3.20;;;2.10;;
50709;SDS011;37033;49.994;21.992;2023-08-12T08:07:25;3.70;;;1.90;;
50709;SDS011;37033;49.994;21.992;2023-08-12T08:09:56;4.40;;;2.10;;
50709;SDS011;37033;49.994;21.992;2023-08-12T08:12:30;2.20;;;1.70;;
50709;SDS011;37033;49.994;21.992;2023-08-12T08:15:01;7.50;;;1.90;;
50709;SDS011;37033;49.994;21.992;2023-08-12T08:17:33;11.20;;;8.10;;
50709;SDS011;37033;49.994;21.992;2023-08-12T08:20:05;3.90;;;2.50;;
50709;SDS011;37033;49.994;21.992;2023-08-12T08:22:38;6.90;;;1.90;;
50709;SDS011;37033;49.994;21.992;2023-08-12T08:25:09;2.60;;;1.50;;
50709;SDS011;37033;49.994;21.992;2023-08-12T08:27:40;2.40;;;1.80;;
50709;SDS011;37033;49.994;21.992;2023-08-12T08:30:12;9.30;;;2.10;;
50709;SDS011;37033;49.994;21.992;2023-08-12T08:32:43;4.10;;;1.70;;
50709;SDS011;37033;49.994;21.992;2023-08-12T08:35:15;1.70;;;1.30;;
50709;SDS011;37033;49.994;21.992;2023-08-12T08:37:46;3.20;;;1.70;;
50709;SDS011;37033;49.994;21.992;2023-08-12T08:40:17;2.40;;;1.60;;
50709;SDS011;37033;49.994;21.992;2023-08-12T08:42:49;3.40;;;2.00;;
50709;SDS011;37033;49.994;21.992;2023-08-12T08:45:22;2.70;;;2.50;;
50709;SDS011;37033;49.994;21.992;2023-08-12T08:47:53;2.00;;;1.40;;
50709;SDS011;37033;49.994;21.992;2023-08-12T08:50:24;2.10;;;1.70;;
50709;SDS011;37033;49.994;21.992;2023-08-12T08:52:57;2.70;;;1.70;;
50709;SDS011;37033;49.994;21.992;2023-08-12T08:55:28;2.20;;;1.50;;
50709;SDS011;37033;49.994;21.992;2023-08-12T08:57:59;2.30;;;1.70;;
50709;SDS011;37033;49.994;21.992;2023-08-12T09:00:30;5.00;;;1.90;;
50709;SDS011;37033;49.994;21.992;2023-08-12T09:03:01;4.00;;;2.10;;
50709;SDS011;37033;49.994;21.992;2023-08-12T09:05:34;1.80;;;1.40;;
50709;SDS011;37033;49.994;21.992;2023-08-12T09:08:06;3.20;;;1.90;;
50709;SDS011;37033;49.994;21.992;2023-08-12T09:10:39;3.80;;;2.50;;
50709;SDS011;37033;49.994;21.992;2023-08-12T09:13:11;2.70;;;2.00;;
50709;SDS011;37033;49.994;21.992;2023-08-12T09:15:42;6.20;;;3.90;;
50709;SDS011;37033;49.994;21.992;2023-08-12T09:20:46;2.10;;;1.70;;
50709;SDS011;37033;49.994;21.992;2023-08-12T09:23:17;1.80;;;1.60;;
50709;SDS011;37033;49.994;21.992;2023-08-12T09:25:52;3.70;;;2.40;;
50709;SDS011;37033;49.994;21.992;2023-08-12T09:28:24;4.30;;;1.70;;
50709;SDS011;37033;49.994;21.992;2023-08-12T09:30:55;1.90;;;1.70;;
50709;SDS011;37033;49.994;21.992;2023-08-12T09:33:26;2.00;;;1.80;;
50709;SDS011;37033;49.994;21.992;2023-08-12T09:35:57;3.70;;;1.60;;
50709;SDS011;37033;49.994;21.992;2023-08-12T09:38:28;5.60;;;1.80;;
50709;SDS011;37033;49.994;21.992;2023-08-12T09:41:00;3.30;;;1.90;;
50709;SDS011;37033;49.994;21.992;2023-08-12T09:43:31;2.20;;;1.90;;
50709;SDS011;37033;49.994;21.992;2023-08-12T09:46:02;2.00;;;1.60;;
50709;SDS011;37033;49.994;21.992;2023-08-12T09:48:33;2.60;;;1.80;;
50709;SDS011;37033;49.994;21.992;2023-08-12T09:51:07;2.60;;;1.60;;
50709;SDS011;37033;49.994;21.992;2023-08-12T09:53:38;4.40;;;1.70;;
50709;SDS011;37033;49.994;21.992;2023-08-12T09:56:11;2.90;;;1.90;;
50709;SDS011;37033;49.994;21.992;2023-08-12T09:58:42;1.50;;;1.40;;
50709;SDS011;37033;49.994;21.992;2023-08-12T10:01:17;3.40;;;1.90;;
50709;SDS011;37033;49.994;21.992;2023-08-12T10:03:49;8.60;;;2.10;;
50709;SDS011;37033;49.994;21.992;2023-08-12T10:06:22;1.80;;;1.70;;
50709;SDS011;37033;49.994;21.992;2023-08-12T10:08:53;1.40;;;1.20;;
50709;SDS011;37033;49.994;21.992;2023-08-12T10:11:25;3.80;;;3.40;;
50709;SDS011;37033;49.994;21.992;2023-08-12T10:13:56;2.10;;;1.70;;
50709;SDS011;37033;49.994;21.992;2023-08-12T10:16:29;1.50;;;1.30;;
50709;SDS011;37033;49.994;21.992;2023-08-12T10:19:01;1.90;;;1.20;;
50709;SDS011;37033;49.994;21.992;2023-08-12T10:21:33;3.30;;;1.30;;
50709;SDS011;37033;49.994;21.992;2023-08-12T10:24:05;2.10;;;1.20;;
50709;SDS011;37033;49.994;21.992;2023-08-12T10:26:41;1.40;;;1.10;;
50709;SDS011;37033;49.994;21.992;2023-08-12T10:29:13;1.80;;;1.30;;
50709;SDS011;37033;49.994;21.992;2023-08-12T10:31:44;3.60;;;1.20;;
50709;SDS011;37033;49.994;21.992;2023-08-12T10:34:21;1.00;;;0.90;;
50709;SDS011;37033;49.994;21.992;2023-08-12T10:36:55;1.50;;;1.00;;
50709;SDS011;37033;49.994;21.992;2023-08-12T10:39:30;8.30;;;2.10;;
50709;SDS011;37033;49.994;21.992;2023-08-12T10:42:06;2.50;;;1.10;;
50709;SDS011;37033;49.994;21.992;2023-08-12T10:47:18;1.00;;;0.90;;
50709;SDS011;37033;49.994;21.992;2023-08-12T10:49:52;1.40;;;1.30;;
50709;SDS011;37033;49.994;21.992;2023-08-12T10:52:27;1.50;;;1.00;;
50709;SDS011;37033;49.994;21.992;2023-08-12T10:57:47;2.20;;;1.50;;
50709;SDS011;37033;49.994;21.992;2023-08-12T11:00:19;2.50;;;1.00;;
50709;SDS011;37033;49.994;21.992;2023-08-12T11:02:52;1.70;;;1.30;;
50709;SDS011;37033;49.994;21.992;2023-08-12T11:05:26;5.10;;;1.40;;
50709;SDS011;37033;49.994;21.992;2023-08-12T11:08:06;1.40;;;1.20;;
50709;SDS011;37033;49.994;21.992;2023-08-12T11:10:37;1.80;;;1.10;;
50709;SDS011;37033;49.994;21.992;2023-08-12T11:13:09;2.40;;;1.50;;
50709;SDS011;37033;49.994;21.992;2023-08-12T11:15:41;3.70;;;1.40;;
50709;SDS011;37033;49.994;21.992;2023-08-12T11:20:44;3.50;;;1.20;;
50709;SDS011;37033;49.994;21.992;2023-08-12T11:23:16;4.00;;;1.50;;
50709;SDS011;37033;49.994;21.992;2023-08-12T11:25:48;1.40;;;1.00;;
50709;SDS011;37033;49.994;21.992;2023-08-12T11:28:19;1.30;;;1.00;;
50709;SDS011;37033;49.994;21.992;2023-08-12T11:30:50;3.10;;;1.50;;
50709;SDS011;37033;49.994;21.992;2023-08-12T11:33:21;2.40;;;1.30;;
50709;SDS011;37033;49.994;21.992;2023-08-12T11:35:55;2.10;;;1.40;;
50709;SDS011;37033;49.994;21.992;2023-08-12T11:38:26;2.10;;;1.70;;
50709;SDS011;37033;49.994;21.992;2023-08-12T11:40:57;1.80;;;1.30;;
50709;SDS011;37033;49.994;21.992;2023-08-12T11:43:33;1.40;;;1.20;;
50709;SDS011;37033;49.994;21.992;2023-08-12T11:46:03;1.50;;;1.30;;
50709;SDS011;37033;49.994;21.992;2023-08-12T11:51:06;2.50;;;1.30;;
50709;SDS011;37033;49.994;21.992;2023-08-12T11:53:38;2.20;;;1.20;;
50709;SDS011;37033;49.994;21.992;2023-08-12T11:56:08;1.20;;;1.10;;
50709;SDS011;37033;49.994;21.992;2023-08-12T11:58:40;1.50;;;1.40;;
50709;SDS011;37033;49.994;21.992;2023-08-12T12:01:10;1.70;;;1.20;;
50709;SDS011;37033;49.994;21.992;2023-08-12T12:03:41;2.00;;;1.60;;
50709;SDS011;37033;49.994;21.992;2023-08-12T12:06:13;1.50;;;1.30;;
50709;SDS011;37033;49.994;21.992;2023-08-12T12:08:45;3.20;;;1.10;;
50709;SDS011;37033;49.994;21.992;2023-08-12T12:11:16;2.10;;;1.40;;
50709;SDS011;37033;49.994;21.992;2023-08-12T12:13:47;1.30;;;1.20;;
50709;SDS011;37033;49.994;21.992;2023-08-12T12:16:19;3.10;;;2.60;;
50709;SDS011;37033;49.994;21.992;2023-08-12T12:18:56;4.00;;;1.40;;
50709;SDS011;37033;49.994;21.992;2023-08-12T12:21:27;1.60;;;1.40;;
50709;SDS011;37033;49.994;21.992;2023-08-12T12:23:58;1.50;;;1.40;;
50709;SDS011;37033;49.994;21.992;2023-08-12T12:26:29;1.20;;;1.10;;
50709;SDS011;37033;49.994;21.992;2023-08-12T12:29:00;2.40;;;1.70;;
50709;SDS011;37033;49.994;21.992;2023-08-12T12:31:33;2.20;;;1.10;;
50709;SDS011;37033;49.994;21.992;2023-08-12T12:34:05;2.60;;;1.50;;
50709;SDS011;37033;49.994;21.992;2023-08-12T12:36:37;1.60;;;1.40;;
50709;SDS011;37033;49.994;21.992;2023-08-12T12:39:08;1.70;;;1.30;;
50709;SDS011;37033;49.994;21.992;2023-08-12T12:41:39;3.70;;;1.20;;
50709;SDS011;37033;49.994;21.992;2023-08-12T12:44:10;1.80;;;1.60;;
50709;SDS011;37033;49.994;21.992;2023-08-12T12:46:41;2.40;;;1.30;;
50709;SDS011;37033;49.994;21.992;2023-08-12T12:49:12;1.40;;;1.30;;
50709;SDS011;37033;49.994;21.992;2023-08-12T12:51:43;2.40;;;1.40;;
50709;SDS011;37033;49.994;21.992;2023-08-12T12:54:14;2.70;;;1.40;;
50709;SDS011;37033;49.994;21.992;2023-08-12T12:56:45;1.70;;;1.40;;
50709;SDS011;37033;49.994;21.992;2023-08-12T12:59:16;1.30;;;1.20;;
50709;SDS011;37033;49.994;21.992;2023-08-12T13:01:47;2.50;;;1.30;;
50709;SDS011;37033;49.994;21.992;2023-08-12T13:04:18;1.80;;;1.10;;
50709;SDS011;37033;49.994;21.992;2023-08-12T13:06:49;1.40;;;1.20;;
50709;SDS011;37033;49.994;21.992;2023-08-12T13:09:20;1.50;;;1.30;;
50709;SDS011;37033;49.994;21.992;2023-08-12T13:11:50;1.50;;;1.40;;
50709;SDS011;37033;49.994;21.992;2023-08-12T13:14:24;1.80;;;1.30;;
50709;SDS011;37033;49.994;21.992;2023-08-12T13:16:56;1.40;;;1.20;;
50709;SDS011;37033;49.994;21.992;2023-08-12T13:19:27;1.70;;;1.30;;
50709;SDS011;37033;49.994;21.992;2023-08-12T13:21:58;2.10;;;1.30;;
50709;SDS011;37033;49.994;21.992;2023-08-12T13:24:30;5.50;;;3.00;;
50709;SDS011;37033;49.994;21.992;2023-08-12T13:27:00;2.20;;;1.50;;
50709;SDS011;37033;49.994;21.992;2023-08-12T13:29:32;2.10;;;1.50;;
50709;SDS011;37033;49.994;21.992;2023-08-12T13:32:03;1.50;;;1.40;;
50709;SDS011;37033;49.994;21.992;2023-08-12T13:34:34;4.40;;;1.40;;
50709;SDS011;37033;49.994;21.992;2023-08-12T13:37:05;2.20;;;1.20;;
50709;SDS011;37033;49.994;21.992;2023-08-12T13:39:36;1.20;;;1.10;;
50709;SDS011;37033;49.994;21.992;2023-08-12T13:42:07;5.20;;;1.30;;
50709;SDS011;37033;49.994;21.992;2023-08-12T13:44:38;2.40;;;1.10;;
50709;SDS011;37033;49.994;21.992;2023-08-12T13:47:09;4.80;;;1.50;;
50709;SDS011;37033;49.994;21.992;2023-08-12T13:49:39;0.90;;;0.90;;
50709;SDS011;37033;49.994;21.992;2023-08-12T13:52:10;3.50;;;1.40;;
50709;SDS011;37033;49.994;21.992;2023-08-12T13:54:41;3.40;;;2.40;;
50709;SDS011;37033;49.994;21.992;2023-08-12T13:57:12;4.80;;;4.00;;
50709;SDS011;37033;49.994;21.992;2023-08-12T13:59:43;2.00;;;1.40;;
50709;SDS011;37033;49.994;21.992;2023-08-12T14:02:15;1.90;;;1.60;;
50709;SDS011;37033;49.994;21.992;2023-08-12T14:04:46;2.80;;;1.80;;
50709;SDS011;37033;49.994;21.992;2023-08-12T14:07:17;1.60;;;1.20;;
50709;SDS011;37033;49.994;21.992;2023-08-12T14:09:49;2.30;;;1.40;;
50709;SDS011;37033;49.994;21.992;2023-08-12T14:12:19;1.80;;;1.50;;
50709;SDS011;37033;49.994;21.992;2023-08-12T14:14:50;2.00;;;1.10;;
50709;SDS011;37033;49.994;21.992;2023-08-12T14:17:21;1.40;;;1.30;;
50709;SDS011;37033;49.994;21.992;2023-08-12T14:19:53;2.30;;;1.60;;
50709;SDS011;37033;49.994;21.992;2023-08-12T14:22:26;2.70;;;1.30;;
50709;SDS011;37033;49.994;21.992;2023-08-12T14:24:56;3.10;;;1.90;;
50709;SDS011;37033;49.994;21.992;2023-08-12T14:27:27;1.40;;;1.30;;
50709;SDS011;37033;49.994;21.992;2023-08-12T14:29:58;7.20;;;6.40;;
50709;SDS011;37033;49.994;21.992;2023-08-12T14:32:29;2.30;;;1.90;;
50709;SDS011;37033;49.994;21.992;2023-08-12T14:35:00;2.20;;;1.40;;
50709;SDS011;37033;49.994;21.992;2023-08-12T14:37:30;3.40;;;1.80;;
50709;SDS011;37033;49.994;21.992;2023-08-12T14:40:01;2.30;;;1.60;;
50709;SDS011;37033;49.994;21.992;2023-08-12T14:42:33;3.10;;;1.30;;
50709;SDS011;37033;49.994;21.992;2023-08-12T14:45:05;4.30;;;1.40;;
50709;SDS011;37033;49.994;21.992;2023-08-12T14:47:39;2.40;;;1.50;;
50709;SDS011;37033;49.994;21.992;2023-08-12T14:50:10;2.30;;;1.70;;
50709;SDS011;37033;49.994;21.992;2023-08-12T14:52:41;2.30;;;1.20;;
50709;SDS011;37033;49.994;21.992;2023-08-12T14:55:11;3.70;;;1.90;;
50709;SDS011;37033;49.994;21.992;2023-08-12T14:57:42;1.70;;;1.50;;
50709;SDS011;37033;49.994;21.992;2023-08-12T15:00:14;1.70;;;1.50;;
50709;SDS011;37033;49.994;21.992;2023-08-12T15:02:45;2.20;;;1.30;;
50709;SDS011;37033;49.994;21.992;2023-08-12T15:05:16;2.00;;;1.50;;
50709;SDS011;37033;49.994;21.992;2023-08-12T15:07:47;1.70;;;1.50;;
50709;SDS011;37033;49.994;21.992;2023-08-12T15:10:18;3.10;;;1.70;;
50709;SDS011;37033;49.994;21.992;2023-08-12T15:12:49;2.30;;;1.60;;
50709;SDS011;37033;49.994;21.992;2023-08-12T15:15:22;1.50;;;1.40;;